Weather at San Justo Airport

Public forecast

Using degrees Celsius for public forecast. Weather courtesy of forecast.io.

Closest aviation weather report (METAR) to San Justo Airport

Closest report is Nueva Hesperides International Airport, 138.7 nm (256.8 km) ESE.

2024/07/20 18:00 (retrieved 16 minutes ago)

SUSO 201800Z 09011KT CAVOK 20/13 Q1019

Closest aviation forecast (TAF) to San Justo Airport

Closest forecast is Nueva Hesperides International Airport, 138.7 nm (256.8 km) ESE.

2024/07/20 18:30 (retrieved 0 seconds ago)

TAF SUSO 201730Z 2018/2118 09008KT CAVOK TX23/2118Z TN13/2111Z TEMPO 2100/2112 3000 BR BKN008 TEMPO 2104/2112 0800 FG OVC006